Time;durP1;ratioP1;P1;durP2;ratioP2;P2;SDS_P1;SDS_P2;PMS_P1;PMS_P2;Temp;Humidity;BMP_temperature;BMP_pressure;BME280_temperature;BME280_humidity;BME280_pressure;Samples;Min_cycle;Max_cycle;Signal;HPM_P1;HPM_P2
2024/03/15 00:00:02;;;;;;;3.60;2.50;;;14.80;99.90;;;;;;4916658;29;20589;-75
2024/03/15 00:02:34;;;;;;;3.60;1.83;;;14.80;99.90;;;;;;4916419;29;20644;-75
2024/03/15 00:05:00;;;;;;;6.30;3.10;;;14.80;99.90;;;;;;4945425;29;20584;-74
2024/03/15 00:07:26;;;;;;;3.73;2.37;;;14.80;99.90;;;;;;4936142;29;21431;-74
2024/03/15 00:09:52;;;;;;;3.80;2.83;;;14.70;99.90;;;;;;4932314;29;20601;-74
2024/03/15 00:12:18;;;;;;;6.40;4.20;;;14.70;99.90;;;;;;4941012;29;20197;-73
2024/03/15 00:14:43;;;;;;;3.60;3.17;;;14.70;99.90;;;;;;4940361;29;20589;-75
2024/03/15 00:17:12;;;;;;;3.07;2.67;;;14.70;99.90;;;;;;4932374;29;20184;-74
2024/03/15 00:19:39;;;;;;;5.53;2.60;;;14.70;99.90;;;;;;4940098;29;20550;-74
2024/03/15 00:22:06;;;;;;;4.07;2.83;;;14.70;99.90;;;;;;4938351;28;20617;-74
2024/03/15 00:24:33;;;;;;;3.50;2.63;;;14.70;99.90;;;;;;4949413;29;21015;-75
2024/03/15 00:26:59;;;;;;;4.10;2.53;;;14.70;99.90;;;;;;4933516;29;20629;-75
2024/03/15 00:29:29;;;;;;;5.67;3.10;;;14.70;99.90;;;;;;4933718;29;20589;-74
2024/03/15 00:31:58;;;;;;;3.67;2.57;;;14.70;99.90;;;;;;4931287;29;20597;-74
2024/03/15 00:34:24;;;;;;;4.30;2.10;;;14.70;99.90;;;;;;4933566;29;20589;-74
2024/03/15 00:36:52;;;;;;;3.17;2.50;;;14.70;99.90;;;;;;4947903;29;20592;-74
2024/03/15 00:39:20;;;;;;;4.50;2.20;;;14.70;99.90;;;;;;4932134;29;20212;-75
2024/03/15 00:41:46;;;;;;;4.03;1.90;;;14.70;99.90;;;;;;4916368;29;21010;-75
2024/03/15 00:44:14;;;;;;;2.90;2.20;;;14.70;99.90;;;;;;4933399;29;20589;-74
2024/03/15 00:46:40;;;;;;;4.63;2.73;;;14.70;99.90;;;;;;4937764;29;20715;-75
2024/03/15 00:49:06;;;;;;;3.13;2.37;;;14.60;99.90;;;;;;4933070;29;21163;-75
2024/03/15 00:51:32;;;;;;;3.70;2.97;;;14.60;99.90;;;;;;4940937;29;20585;-74
2024/03/15 00:53:58;;;;;;;4.83;1.87;;;14.60;99.90;;;;;;4933411;29;20952;-75
2024/03/15 00:56:24;;;;;;;4.50;2.63;;;14.60;99.90;;;;;;4916384;29;20593;-75
2024/03/15 00:58:50;;;;;;;5.10;2.23;;;14.50;99.90;;;;;;4933400;29;20596;-75
2024/03/15 01:01:16;;;;;;;6.50;2.70;;;14.50;99.90;;;;;;4931729;29;20679;-75
2024/03/15 01:03:41;;;;;;;5.30;2.70;;;14.50;99.90;;;;;;4934264;29;20617;-75
2024/03/15 01:06:07;;;;;;;3.50;2.10;;;14.50;99.90;;;;;;4940166;29;21114;-75
2024/03/15 01:08:33;;;;;;;4.63;2.90;;;14.50;99.90;;;;;;4931872;29;20231;-75
2024/03/15 01:10:59;;;;;;;4.27;2.23;;;14.40;99.90;;;;;;4931278;29;20652;-74
2024/03/15 01:13:25;;;;;;;4.90;2.00;;;14.40;99.90;;;;;;4931959;29;21179;-75
2024/03/15 01:15:51;;;;;;;3.40;2.30;;;14.40;99.90;;;;;;4947502;29;20584;-75
2024/03/15 01:18:17;;;;;;;3.50;2.43;;;14.30;99.90;;;;;;4931869;29;20185;-75
2024/03/15 01:20:43;;;;;;;3.77;2.23;;;14.30;99.90;;;;;;4949599;29;20188;-74
2024/03/15 01:23:09;;;;;;;3.37;2.10;;;14.30;99.90;;;;;;4945600;28;20611;-75
2024/03/15 01:25:35;;;;;;;3.37;2.50;;;14.30;99.90;;;;;;4944436;29;20576;-75
2024/03/15 01:28:02;;;;;;;4.03;2.50;;;14.30;99.90;;;;;;4925202;29;20671;-75
2024/03/15 01:30:27;;;;;;;4.60;1.97;;;14.40;99.90;;;;;;4932366;29;20181;-74
2024/03/15 01:32:53;;;;;;;2.87;1.70;;;14.30;99.90;;;;;;4932751;29;20954;-74
2024/03/15 01:35:19;;;;;;;3.43;2.17;;;14.40;99.90;;;;;;4964905;28;20216;-74
2024/03/15 01:37:45;;;;;;;6.10;2.60;;;14.40;99.90;;;;;;4937191;29;20275;-75
2024/03/15 01:40:11;;;;;;;3.03;2.60;;;14.40;99.90;;;;;;4936339;29;20589;-75
2024/03/15 01:42:37;;;;;;;5.00;3.07;;;14.40;99.90;;;;;;4934850;29;21224;-74
2024/03/15 01:45:04;;;;;;;3.40;1.80;;;14.40;99.90;;;;;;4936129;29;20591;-74
2024/03/15 01:47:30;;;;;;;2.83;1.97;;;14.40;99.90;;;;;;4950116;29;20650;-74
2024/03/15 01:50:00;;;;;;;3.40;2.30;;;14.40;99.90;;;;;;4936596;29;20581;-75
2024/03/15 01:52:26;;;;;;;4.20;2.50;;;14.30;99.90;;;;;;4923380;29;20627;-75
2024/03/15 01:54:52;;;;;;;5.33;2.70;;;14.30;99.90;;;;;;4947224;29;21196;-74
2024/03/15 01:57:19;;;;;;;3.30;2.67;;;14.40;99.90;;;;;;4949862;29;20184;-75
2024/03/15 01:59:45;;;;;;;3.60;2.50;;;14.40;99.90;;;;;;4951672;29;20187;-75
2024/03/15 02:02:13;;;;;;;3.67;2.73;;;14.30;99.90;;;;;;4935345;29;20636;-75
2024/03/15 02:04:53;;;;;;;3.90;2.33;;;14.40;99.90;;;;;;4950897;29;20254;-74
2024/03/15 02:07:27;;;;;;;3.17;2.40;;;14.30;99.90;;;;;;4924379;29;20644;-75
2024/03/15 02:10:08;;;;;;;3.40;2.00;;;14.40;99.90;;;;;;4935831;29;21154;-75
2024/03/15 02:12:34;;;;;;;4.80;2.67;;;14.40;99.90;;;;;;4918765;29;20732;-76
2024/03/15 02:15:00;;;;;;;4.97;2.37;;;14.40;99.90;;;;;;4934643;29;21170;-75
2024/03/15 02:17:27;;;;;;;4.43;2.27;;;14.30;99.90;;;;;;4919234;29;20181;-76
2024/03/15 02:19:52;;;;;;;3.77;3.17;;;14.30;99.90;;;;;;4934794;29;20639;-75
2024/03/15 02:22:18;;;;;;;3.63;2.77;;;14.30;99.90;;;;;;4933737;29;20629;-76
2024/03/15 02:24:44;;;;;;;3.40;2.23;;;14.30;99.90;;;;;;4934821;29;20616;-76
2024/03/15 02:27:13;;;;;;;3.37;1.87;;;14.30;99.90;;;;;;4940050;29;20208;-76
2024/03/15 02:29:42;;;;;;;2.93;2.40;;;14.30;99.90;;;;;;4937880;29;20628;-76
2024/03/15 02:32:08;;;;;;;5.00;3.10;;;14.30;99.90;;;;;;4933770;29;20676;-76
2024/03/15 02:34:37;;;;;;;3.83;3.43;;;14.30;99.90;;;;;;4936598;29;20597;-76
2024/03/15 02:37:03;;;;;;;3.87;2.60;;;14.20;99.90;;;;;;4942675;29;20655;-76
2024/03/15 02:39:29;;;;;;;3.03;2.73;;;14.30;99.90;;;;;;4935983;29;20631;-75
2024/03/15 02:41:56;;;;;;;3.93;2.40;;;14.20;99.90;;;;;;4965812;28;20617;-76
2024/03/15 02:44:22;;;;;;;4.20;2.90;;;14.20;99.90;;;;;;4933370;29;20655;-75
2024/03/15 02:46:48;;;;;;;3.47;2.43;;;14.20;99.90;;;;;;4934108;29;20644;-76
2024/03/15 02:49:14;;;;;;;3.20;1.73;;;14.20;99.90;;;;;;4935463;29;20165;-75
2024/03/15 02:51:41;;;;;;;3.30;2.27;;;14.20;99.90;;;;;;4942393;29;21185;-75
2024/03/15 02:54:08;;;;;;;4.90;2.90;;;14.20;99.90;;;;;;4934202;29;20700;-75
2024/03/15 02:56:36;;;;;;;3.27;2.30;;;14.20;99.90;;;;;;4935417;29;20597;-75
2024/03/15 02:59:02;;;;;;;3.17;2.17;;;14.20;99.90;;;;;;4943141;29;20644;-76
2024/03/15 03:01:27;;;;;;;3.90;2.83;;;14.20;99.90;;;;;;4934769;29;20635;-75
2024/03/15 03:03:55;;;;;;;4.10;2.10;;;14.30;99.90;;;;;;4933710;29;20649;-75
2024/03/15 03:06:23;;;;;;;2.87;1.60;;;14.30;99.90;;;;;;4934863;29;20576;-75
2024/03/15 03:08:49;;;;;;;3.30;2.00;;;14.30;99.90;;;;;;4914607;29;20598;-75
2024/03/15 03:11:17;;;;;;;3.20;2.07;;;14.30;99.90;;;;;;4926790;29;21201;-76
2024/03/15 03:13:43;;;;;;;3.57;1.63;;;14.40;99.90;;;;;;4941814;29;20662;-75
2024/03/15 03:16:10;;;;;;;3.27;1.70;;;14.40;99.90;;;;;;4934540;29;20680;-75
2024/03/15 03:18:36;;;;;;;3.17;1.87;;;14.40;99.90;;;;;;4934565;29;20915;-76
2024/03/15 03:21:02;;;;;;;3.30;1.70;;;14.40;99.90;;;;;;4933899;29;20588;-76
2024/03/15 03:23:28;;;;;;;2.93;1.40;;;14.40;99.90;;;;;;4936459;29;21040;-76
2024/03/15 03:25:53;;;;;;;2.97;1.50;;;14.50;99.90;;;;;;4957065;28;20644;-77
2024/03/15 03:28:20;;;;;;;3.90;1.53;;;14.50;99.90;;;;;;4933169;29;20240;-76
2024/03/15 03:30:46;;;;;;;3.73;1.80;;;14.50;99.90;;;;;;4934010;29;20595;-76
2024/03/15 03:33:13;;;;;;;4.70;1.53;;;14.50;99.90;;;;;;4932760;29;20621;-75
2024/03/15 03:35:39;;;;;;;5.07;1.70;;;14.50;99.90;;;;;;4932979;29;20648;-76
2024/03/15 03:38:06;;;;;;;3.13;1.53;;;14.50;99.90;;;;;;4934058;29;20971;-76
2024/03/15 03:40:33;;;;;;;3.17;1.60;;;14.50;99.90;;;;;;4932506;29;20941;-76
2024/03/15 03:43:01;;;;;;;2.73;1.70;;;14.60;99.90;;;;;;4933573;29;20708;-76
2024/03/15 03:45:27;;;;;;;4.00;1.77;;;14.60;99.90;;;;;;4932588;29;20589;-76
2024/03/15 03:47:55;;;;;;;6.63;2.00;;;14.60;99.90;;;;;;4932587;29;20585;-76
2024/03/15 03:50:21;;;;;;;3.77;1.87;;;14.60;99.90;;;;;;4933742;29;20603;-76
2024/03/15 03:52:48;;;;;;;2.70;1.53;;;14.60;99.90;;;;;;4932402;29;21001;-75
2024/03/15 03:55:17;;;;;;;3.63;1.80;;;14.60;99.90;;;;;;4931528;29;20653;-75
2024/03/15 03:57:46;;;;;;;3.10;1.83;;;14.60;99.90;;;;;;4917105;29;20952;-75
2024/03/15 04:00:16;;;;;;;5.03;1.57;;;14.60;99.90;;;;;;4926121;29;20640;-75
2024/03/15 04:02:48;;;;;;;2.97;1.50;;;14.60;99.90;;;;;;4933504;29;21037;-75
2024/03/15 04:05:15;;;;;;;2.10;1.27;;;14.60;99.90;;;;;;4925393;29;20621;-75
2024/03/15 04:07:42;;;;;;;2.00;1.37;;;14.70;99.90;;;;;;4933714;29;20759;-75
2024/03/15 04:10:08;;;;;;;2.87;1.13;;;14.70;99.90;;;;;;4916114;29;20692;-75
2024/03/15 04:12:35;;;;;;;2.80;1.43;;;14.70;99.90;;;;;;4932241;29;20624;-74
2024/03/15 04:15:02;;;;;;;2.73;1.33;;;14.70;99.90;;;;;;4933710;29;20577;-73
2024/03/15 04:17:27;;;;;;;4.67;1.27;;;14.70;99.90;;;;;;4916413;29;20644;-74
2024/03/15 04:19:53;;;;;;;2.67;1.83;;;14.70;99.90;;;;;;4932222;29;21170;-74
2024/03/15 04:22:22;;;;;;;3.40;1.50;;;14.70;99.90;;;;;;4932654;29;20205;-74
2024/03/15 04:24:49;;;;;;;3.10;1.43;;;14.80;99.90;;;;;;4947990;29;20535;-74
2024/03/15 04:27:16;;;;;;;2.43;1.10;;;14.80;99.90;;;;;;4931839;29;20679;-74
2024/03/15 04:29:42;;;;;;;3.40;1.30;;;14.80;99.90;;;;;;4934186;29;21042;-75
2024/03/15 04:32:09;;;;;;;3.73;1.50;;;14.80;99.90;;;;;;4931282;29;20712;-74
2024/03/15 04:34:38;;;;;;;2.73;1.17;;;14.80;99.90;;;;;;4932506;29;20177;-74
2024/03/15 04:37:09;;;;;;;2.90;1.30;;;14.80;99.90;;;;;;4934109;29;20649;-75
2024/03/15 04:39:38;;;;;;;3.00;1.00;;;14.80;99.90;;;;;;4934646;29;20616;-75
2024/03/15 04:42:04;;;;;;;2.47;1.50;;;14.80;99.90;;;;;;4935824;29;20633;-75
2024/03/15 04:44:37;;;;;;;3.00;1.70;;;14.90;99.90;;;;;;4935497;29;20608;-75
2024/03/15 04:47:09;;;;;;;2.17;1.20;;;14.90;99.90;;;;;;4935715;29;20637;-75
2024/03/15 04:49:36;;;;;;;2.30;1.57;;;14.90;99.90;;;;;;4934229;29;20655;-74
2024/03/15 04:52:02;;;;;;;1.80;1.27;;;14.90;99.90;;;;;;4931355;29;20632;-74
2024/03/15 04:54:30;;;;;;;2.33;1.20;;;14.90;99.90;;;;;;4932519;29;20701;-74
2024/03/15 04:56:56;;;;;;;2.47;1.30;;;14.90;99.90;;;;;;4934121;29;20231;-74
2024/03/15 04:59:22;;;;;;;5.50;1.10;;;15.00;99.90;;;;;;4916159;29;20616;-74
2024/03/15 05:01:48;;;;;;;2.43;1.40;;;15.00;99.90;;;;;;4931460;29;20197;-74
2024/03/15 05:04:14;;;;;;;3.83;1.23;;;15.00;99.90;;;;;;4955438;28;20646;-74
2024/03/15 05:06:39;;;;;;;2.17;1.43;;;15.10;99.90;;;;;;4932992;29;20205;-75
2024/03/15 05:09:08;;;;;;;4.60;1.43;;;15.10;99.90;;;;;;4936220;29;20510;-74
2024/03/15 05:11:34;;;;;;;2.00;1.20;;;15.10;99.90;;;;;;4934993;29;20614;-74
2024/03/15 05:14:00;;;;;;;3.17;1.50;;;15.20;99.90;;;;;;4919495;29;20623;-74
2024/03/15 05:16:26;;;;;;;2.67;1.20;;;15.20;99.90;;;;;;4936695;29;20691;-74
2024/03/15 05:18:52;;;;;;;3.43;1.20;;;15.20;99.90;;;;;;4919430;29;20699;-73
2024/03/15 05:21:19;;;;;;;3.10;1.17;;;15.20;99.90;;;;;;4934511;29;20188;-73
2024/03/15 05:23:47;;;;;;;2.67;1.20;;;15.20;99.90;;;;;;4936506;29;20298;-74
2024/03/15 05:26:13;;;;;;;2.97;1.10;;;15.20;99.90;;;;;;4929540;29;21081;-73
2024/03/15 05:28:39;;;;;;;3.13;1.63;;;15.30;99.90;;;;;;4936310;29;20947;-73
2024/03/15 05:31:05;;;;;;;7.53;1.80;;;15.30;99.90;;;;;;4934224;29;20596;-74
2024/03/15 05:33:31;;;;;;;5.57;1.40;;;15.30;99.90;;;;;;4934498;29;20203;-74
2024/03/15 05:35:57;;;;;;;4.33;1.20;;;15.30;99.90;;;;;;4920878;29;20628;-74
2024/03/15 05:38:26;;;;;;;3.00;1.23;;;15.30;99.90;;;;;;4936051;29;20600;-74
2024/03/15 05:40:51;;;;;;;3.80;1.23;;;15.30;99.90;;;;;;4935543;29;20687;-71
2024/03/15 05:43:17;;;;;;;3.30;1.60;;;15.30;99.90;;;;;;4935850;29;20744;-73
2024/03/15 05:45:43;;;;;;;2.63;1.50;;;15.30;99.90;;;;;;4934724;29;20647;-73
2024/03/15 05:48:09;;;;;;;2.73;1.53;;;15.30;99.90;;;;;;4935631;29;20664;-73
2024/03/15 05:50:35;;;;;;;3.77;1.83;;;15.30;99.90;;;;;;4935409;29;20592;-73
2024/03/15 05:53:00;;;;;;;2.50;1.10;;;15.40;99.90;;;;;;4936155;29;20292;-73
2024/03/15 05:55:26;;;;;;;3.00;1.30;;;15.40;99.90;;;;;;4934856;29;20184;-73
2024/03/15 05:57:53;;;;;;;2.00;1.30;;;15.40;99.90;;;;;;4936070;29;20189;-73
2024/03/15 06:00:21;;;;;;;3.00;1.50;;;15.40;99.90;;;;;;4934384;29;20709;-74
2024/03/15 06:02:51;;;;;;;3.00;1.70;;;15.40;99.90;;;;;;4934096;29;20644;-73
2024/03/15 06:05:22;;;;;;;2.53;1.27;;;15.40;99.90;;;;;;4934389;29;20605;-73
2024/03/15 06:07:48;;;;;;;4.73;1.50;;;15.40;99.90;;;;;;4935989;29;20741;-73
2024/03/15 06:10:14;;;;;;;4.47;1.20;;;15.40;99.90;;;;;;4918549;29;20647;-73
2024/03/15 06:12:40;;;;;;;2.00;1.27;;;15.40;99.90;;;;;;4935526;29;20620;-72
2024/03/15 06:15:08;;;;;;;2.83;1.20;;;15.40;99.90;;;;;;4934250;29;20188;-73
2024/03/15 06:17:34;;;;;;;5.50;2.47;;;15.50;99.90;;;;;;4933570;29;20601;-72
2024/03/15 06:20:00;;;;;;;4.30;1.80;;;15.50;99.90;;;;;;4933489;29;20609;-73
2024/03/15 06:22:26;;;;;;;5.27;1.97;;;15.50;99.90;;;;;;4935295;29;20208;-73
2024/03/15 06:24:58;;;;;;;2.93;1.50;;;15.50;99.90;;;;;;4935450;29;20200;-73
2024/03/15 06:27:24;;;;;;;3.73;1.60;;;15.50;99.90;;;;;;4935626;29;20204;-73
2024/03/15 06:29:52;;;;;;;4.27;1.37;;;15.60;99.90;;;;;;4935506;29;20759;-73
2024/03/15 06:32:25;;;;;;;3.03;1.60;;;15.60;99.90;;;;;;4934298;29;20295;-73
2024/03/15 06:34:55;;;;;;;3.20;1.10;;;15.60;99.90;;;;;;4933830;29;20601;-73
2024/03/15 06:37:23;;;;;;;1.90;1.07;;;15.60;99.90;;;;;;4935948;29;21094;-73
2024/03/15 06:42:23;;;;;;;2.50;1.00;;;15.70;99.90;;;;;;4926035;29;20620;-73
2024/03/15 06:47:38;;;;;;;3.43;1.83;;;15.70;99.90;;;;;;4935139;29;20641;-75
2024/03/15 06:52:41;;;;;;;4.10;1.77;;;15.90;99.90;;;;;;4932561;29;21235;-75
2024/03/15 06:55:10;;;;;;;3.67;2.00;;;16.00;99.90;;;;;;4931584;29;20985;-75
2024/03/15 06:57:38;;;;;;;3.60;2.10;;;16.10;99.90;;;;;;4931368;29;20601;-74
2024/03/15 07:00:09;;;;;;;3.00;1.70;;;16.20;99.90;;;;;;4932470;29;20597;-75
2024/03/15 07:02:40;;;;;;;3.57;1.80;;;16.30;99.90;;;;;;4932424;29;20644;-75
2024/03/15 07:05:07;;;;;;;3.93;1.33;;;16.30;99.90;;;;;;4934517;29;20600;-75
2024/03/15 07:07:37;;;;;;;4.43;1.50;;;16.40;99.90;;;;;;4934543;29;20729;-76
2024/03/15 07:10:13;;;;;;;2.23;1.20;;;16.40;99.90;;;;;;4934028;29;20592;-77
2024/03/15 07:12:39;;;;;;;7.20;1.80;;;16.40;99.90;;;;;;4931554;29;20696;-78
2024/03/15 07:15:09;;;;;;;2.70;1.40;;;16.50;99.90;;;;;;4933462;29;20684;-77
2024/03/15 07:17:36;;;;;;;3.40;1.52;;;16.50;99.90;;;;;;4945584;29;20741;-75
2024/03/15 07:20:08;;;;;;;3.17;1.57;;;16.50;99.90;;;;;;4964877;28;20280;-75
2024/03/15 07:22:34;;;;;;;3.33;1.20;;;16.50;99.90;;;;;;4933515;29;20677;-75
2024/03/15 07:25:04;;;;;;;1.90;1.30;;;16.60;99.90;;;;;;4933990;29;20696;-75
2024/03/15 07:27:30;;;;;;;3.07;1.80;;;16.70;99.90;;;;;;4932776;29;20644;-75
2024/03/15 07:29:57;;;;;;;3.30;1.60;;;16.80;99.90;;;;;;4932888;29;20600;-78
2024/03/15 07:32:22;;;;;;;3.23;1.30;;;16.90;99.90;;;;;;4931280;29;20676;-77
2024/03/15 07:34:48;;;;;;;2.77;1.57;;;16.90;99.90;;;;;;4932039;29;20588;-78
2024/03/15 07:37:16;;;;;;;4.33;1.43;;;17.00;99.90;;;;;;4927735;29;20730;-78
2024/03/15 07:39:42;;;;;;;3.83;1.43;;;17.20;99.90;;;;;;4941013;29;20596;-78
2024/03/15 07:42:08;;;;;;;3.67;1.60;;;17.30;99.90;;;;;;4933845;29;20627;-78
2024/03/15 07:44:35;;;;;;;5.17;1.63;;;17.30;99.90;;;;;;4964857;28;20609;-78
2024/03/15 07:47:02;;;;;;;3.50;1.67;;;17.40;99.90;;;;;;4936222;29;21245;-78
2024/03/15 07:49:28;;;;;;;4.77;1.33;;;17.40;99.90;;;;;;4937496;29;20593;-77
2024/03/15 07:51:56;;;;;;;2.40;1.23;;;17.40;99.90;;;;;;4932748;29;20596;-76
2024/03/15 07:54:22;;;;;;;2.40;1.40;;;17.40;99.90;;;;;;4928197;29;20724;-76
2024/03/15 07:56:49;;;;;;;2.77;1.47;;;17.30;99.90;;;;;;4937377;29;20617;-76
2024/03/15 07:59:18;;;;;;;4.87;2.10;;;17.30;99.90;;;;;;4942150;29;20589;-76
2024/03/15 08:01:44;;;;;;;3.13;1.60;;;17.30;99.90;;;;;;4934953;29;20683;-77
2024/03/15 08:04:10;;;;;;;2.50;1.30;;;17.30;99.90;;;;;;4933887;29;20649;-75
2024/03/15 08:06:37;;;;;;;3.50;1.40;;;17.40;99.90;;;;;;4932812;29;20698;-75
2024/03/15 08:09:04;;;;;;;3.00;1.70;;;17.40;99.90;;;;;;4933476;29;20632;-76
2024/03/15 08:11:33;;;;;;;3.07;1.33;;;17.50;99.90;;;;;;4929044;29;20601;-76
2024/03/15 08:14:02;;;;;;;2.70;1.23;;;17.50;99.90;;;;;;4933202;29;20617;-75
2024/03/15 08:16:33;;;;;;;6.00;1.77;;;17.50;99.90;;;;;;4933662;29;20593;-77
2024/03/15 08:19:07;;;;;;;3.23;1.40;;;17.50;99.90;;;;;;4932711;29;20604;-77
2024/03/15 08:21:33;;;;;;;2.80;1.50;;;17.60;99.90;;;;;;4930993;29;20631;-77
2024/03/15 08:24:04;;;;;;;3.30;1.60;;;17.60;99.90;;;;;;4939836;29;21005;-77
2024/03/15 08:26:33;;;;;;;4.17;1.17;;;17.60;99.90;;;;;;4938724;29;20631;-77
2024/03/15 08:29:00;;;;;;;3.50;1.90;;;17.70;99.90;;;;;;4946382;28;20688;-76
2024/03/15 08:31:27;;;;;;;5.03;2.50;;;17.70;99.90;;;;;;4934467;29;20607;-77
2024/03/15 08:33:52;;;;;;;3.40;1.57;;;17.70;99.90;;;;;;4944686;29;20638;-77
2024/03/15 08:36:18;;;;;;;4.43;1.80;;;17.70;99.90;;;;;;4943754;29;20596;-76
2024/03/15 08:38:45;;;;;;;3.60;1.80;;;17.70;99.90;;;;;;4919016;29;20228;-77
2024/03/15 08:41:11;;;;;;;4.00;1.90;;;17.70;99.90;;;;;;4937797;29;20173;-77
2024/03/15 08:43:37;;;;;;;5.17;2.13;;;17.70;99.90;;;;;;4945881;29;20617;-77
2024/03/15 08:46:05;;;;;;;2.73;1.57;;;17.70;99.90;;;;;;4953271;29;20644;-77
2024/03/15 08:48:31;;;;;;;5.13;1.37;;;17.70;99.90;;;;;;4943011;29;20186;-78
2024/03/15 08:51:03;;;;;;;2.70;1.43;;;17.70;99.90;;;;;;4947267;29;20585;-77
2024/03/15 08:53:29;;;;;;;2.43;1.37;;;17.70;99.90;;;;;;4935641;29;20292;-77
2024/03/15 08:55:57;;;;;;;2.63;1.30;;;17.80;99.90;;;;;;4938361;29;20679;-77
2024/03/15 08:58:26;;;;;;;4.07;1.37;;;17.90;99.90;;;;;;4939514;29;20177;-78
2024/03/15 09:00:54;;;;;;;2.20;1.10;;;18.20;99.90;;;;;;4937181;29;20643;-78
2024/03/15 09:03:20;;;;;;;3.80;1.77;;;18.30;99.90;;;;;;4936779;29;20672;-78
2024/03/15 09:05:48;;;;;;;2.80;1.40;;;18.50;99.90;;;;;;4937836;29;20608;-78
2024/03/15 09:08:14;;;;;;;3.93;1.57;;;18.60;99.90;;;;;;4938322;29;20589;-77
2024/03/15 09:10:40;;;;;;;2.17;1.10;;;18.80;99.90;;;;;;4944086;29;21030;-77
2024/03/15 09:13:06;;;;;;;2.23;1.30;;;18.90;99.90;;;;;;4931556;29;20200;-77
2024/03/15 09:15:33;;;;;;;2.43;1.10;;;19.00;99.90;;;;;;4973309;28;20608;-77
2024/03/15 09:18:00;;;;;;;2.13;1.00;;;19.10;99.90;;;;;;4957045;29;20600;-76
2024/03/15 09:20:35;;;;;;;2.73;1.00;;;19.20;99.90;;;;;;4951832;29;20588;-77
2024/03/15 09:23:04;;;;;;;3.27;1.40;;;19.20;99.90;;;;;;4939998;29;21046;-78
2024/03/15 09:25:30;;;;;;;4.27;1.30;;;19.30;99.90;;;;;;4936732;29;21382;-76
2024/03/15 09:27:57;;;;;;;2.27;1.10;;;19.30;99.90;;;;;;4937459;29;20620;-76
2024/03/15 09:30:29;;;;;;;2.00;1.10;;;19.40;99.90;;;;;;4937192;29;20680;-78
2024/03/15 09:32:55;;;;;;;2.43;1.00;;;19.50;99.90;;;;;;4935197;29;20632;-77
2024/03/15 09:35:20;;;;;;;1.80;0.80;;;19.50;99.90;;;;;;4936712;29;20592;-77
2024/03/15 09:37:53;;;;;;;1.80;0.90;;;19.60;99.90;;;;;;4935602;29;21205;-77
2024/03/15 09:40:20;;;;;;;2.37;0.90;;;19.70;99.90;;;;;;4935491;29;20193;-74
2024/03/15 09:42:48;;;;;;;2.80;1.30;;;19.80;99.90;;;;;;4937030;29;20719;-75
2024/03/15 09:45:18;;;;;;;2.93;0.93;;;19.90;99.90;;;;;;4937940;29;20665;-74
2024/03/15 09:47:51;;;;;;;2.33;1.03;;;20.00;99.90;;;;;;4940477;29;20659;-73
2024/03/15 09:50:24;;;;;;;3.60;0.90;;;20.00;99.90;;;;;;4950648;29;21188;-74
2024/03/15 09:52:51;;;;;;;1.97;1.00;;;20.10;99.90;;;;;;4941221;28;21028;-74
2024/03/15 09:55:17;;;;;;;2.87;1.17;;;20.10;99.90;;;;;;4936244;28;20592;-74
2024/03/15 09:57:43;;;;;;;3.00;1.07;;;20.10;99.90;;;;;;4946068;29;20735;-76
2024/03/15 10:00:17;;;;;;;3.40;0.97;;;20.20;99.90;;;;;;4946104;29;20668;-76
2024/03/15 10:02:47;;;;;;;2.20;1.13;;;20.20;99.90;;;;;;4947290;29;20759;-77
2024/03/15 10:05:17;;;;;;;2.50;1.07;;;20.20;99.90;;;;;;4946704;29;20609;-76
2024/03/15 10:07:43;;;;;;;2.20;0.90;;;20.20;99.90;;;;;;4947870;29;20982;-76
2024/03/15 10:10:11;;;;;;;2.43;0.90;;;20.20;99.90;;;;;;4944163;29;20580;-75
2024/03/15 10:12:44;;;;;;;1.63;0.80;;;20.20;99.90;;;;;;4944008;29;20712;-75
2024/03/15 10:15:12;;;;;;;2.13;0.70;;;20.20;99.90;;;;;;4934689;29;20620;-76
2024/03/15 10:17:43;;;;;;;1.70;0.77;;;20.30;99.90;;;;;;4943559;29;20589;-75
2024/03/15 10:20:25;;;;;;;2.13;0.70;;;20.30;99.90;;;;;;4936981;29;20624;-74
2024/03/15 10:22:56;;;;;;;1.50;0.70;;;20.40;99.90;;;;;;4938659;29;20650;-74
2024/03/15 10:25:24;;;;;;;1.90;0.70;;;20.50;99.90;;;;;;4946307;29;20700;-75
2024/03/15 10:27:54;;;;;;;2.13;0.73;;;20.50;99.90;;;;;;4947389;29;20635;-74
2024/03/15 10:30:22;;;;;;;3.05;0.70;;;20.60;99.90;;;;;;4939730;29;20726;-73
2024/03/15 10:32:49;;;;;;;2.90;0.87;;;20.80;99.90;;;;;;4935268;29;20204;-75
2024/03/15 10:35:16;;;;;;;1.77;0.80;;;21.10;99.90;;;;;;4935366;29;20599;-74
2024/03/15 10:37:45;;;;;;;3.30;0.90;;;21.40;99.90;;;;;;4929263;29;20637;-74
2024/03/15 10:40:27;;;;;;;1.60;0.60;;;21.60;99.90;;;;;;4931817;29;20628;-75
2024/03/15 10:42:55;;;;;;;1.50;0.60;;;21.80;99.90;;;;;;4923815;29;20633;-76
2024/03/15 10:45:26;;;;;;;1.50;0.70;;;22.10;99.90;;;;;;4947066;29;20604;-76
2024/03/15 10:47:52;;;;;;;1.50;0.50;;;22.10;99.90;;;;;;4948414;29;20640;-76
2024/03/15 10:50:24;;;;;;;2.07;0.63;;;22.20;99.90;;;;;;4931140;29;20592;-76
2024/03/15 10:52:52;;;;;;;1.30;0.50;;;22.30;99.90;;;;;;4946325;29;20621;-76
2024/03/15 10:55:28;;;;;;;1.70;0.60;;;22.40;99.90;;;;;;4948070;29;20599;-75
2024/03/15 10:57:59;;;;;;;1.80;0.50;;;22.40;99.90;;;;;;4929787;29;20607;-76
2024/03/15 11:00:28;;;;;;;1.50;0.50;;;22.50;99.90;;;;;;4946346;29;20604;-76
2024/03/15 11:03:09;;;;;;;1.60;0.50;;;22.60;99.90;;;;;;4948080;29;20651;-76
2024/03/15 11:05:35;;;;;;;2.13;0.70;;;22.80;99.90;;;;;;4945570;29;21093;-76
2024/03/15 11:08:06;;;;;;;2.03;0.60;;;23.10;99.90;;;;;;4937315;29;20731;-76
2024/03/15 11:10:32;;;;;;;2.07;0.50;;;23.50;99.90;;;;;;4936324;29;20596;-75
2024/03/15 11:13:03;;;;;;;2.50;0.60;;;23.80;99.90;;;;;;4942694;29;20627;-75
2024/03/15 11:15:36;;;;;;;1.30;0.47;;;24.10;99.90;;;;;;4945315;29;20593;-76
2024/03/15 11:18:08;;;;;;;1.70;0.60;;;24.10;99.90;;;;;;4952804;29;20588;-76
2024/03/15 11:20:48;;;;;;;1.30;0.50;;;24.10;99.90;;;;;;4944307;29;20593;-76
2024/03/15 11:23:18;;;;;;;1.20;0.50;;;23.90;99.90;;;;;;4942674;29;20608;-76
2024/03/15 11:26:01;;;;;;;2.00;0.60;;;23.70;99.90;;;;;;4948136;29;20580;-77
2024/03/15 11:28:28;;;;;;;1.70;0.50;;;23.40;99.90;;;;;;4943159;28;20844;-76
2024/03/15 11:30:55;;;;;;;2.37;0.50;;;23.00;99.90;;;;;;4938953;29;20599;-77
2024/03/15 11:33:21;;;;;;;2.67;1.40;;;22.60;99.90;;;;;;4935509;29;20749;-74
2024/03/15 11:35:48;;;;;;;3.13;1.80;;;21.90;99.90;;;;;;4934600;29;20180;-74
2024/03/15 11:38:16;;;;;;;1.40;0.60;;;21.60;99.90;;;;;;4938522;29;20589;-75
2024/03/15 11:40:42;;;;;;;1.60;0.70;;;21.20;99.90;;;;;;4939244;29;21025;-75
2024/03/15 11:43:09;;;;;;;1.83;0.60;;;20.90;99.90;;;;;;4936032;29;20271;-75
2024/03/15 11:45:38;;;;;;;2.30;0.77;;;20.70;99.90;;;;;;4949484;29;21241;-75
2024/03/15 11:48:13;;;;;;;2.23;0.70;;;20.60;99.90;;;;;;4933001;29;20691;-75
2024/03/15 11:50:42;;;;;;;2.03;0.60;;;20.60;99.90;;;;;;4933306;29;20717;-74
2024/03/15 11:53:10;;;;;;;1.60;0.60;;;20.70;99.90;;;;;;4941635;29;20952;-75
2024/03/15 11:55:36;;;;;;;1.40;0.50;;;20.90;99.90;;;;;;4934467;29;20581;-75
2024/03/15 11:58:02;;;;;;;1.50;0.60;;;21.30;99.90;;;;;;4940592;29;20687;-74
2024/03/15 12:00:28;;;;;;;1.77;0.50;;;21.60;99.90;;;;;;4943162;29;21105;-75
2024/03/15 12:02:56;;;;;;;1.50;0.60;;;21.80;99.90;;;;;;4934278;29;20663;-75
2024/03/15 12:05:22;;;;;;;2.27;0.70;;;22.10;99.90;;;;;;4933394;29;20185;-75
2024/03/15 12:07:50;;;;;;;1.70;0.67;;;22.30;99.90;;;;;;4933181;29;20648;-74
2024/03/15 12:10:16;;;;;;;1.60;0.60;;;22.50;99.90;;;;;;4932695;29;20608;-75
2024/03/15 12:12:48;;;;;;;1.50;0.60;;;22.70;99.90;;;;;;4934015;29;20620;-75
2024/03/15 12:15:29;;;;;;;2.17;0.73;;;22.80;99.90;;;;;;4917383;29;20223;-75
2024/03/15 12:17:57;;;;;;;2.73;0.73;;;22.70;99.90;;;;;;4933295;29;20593;-75
2024/03/15 12:20:23;;;;;;;2.33;0.60;;;22.50;99.90;;;;;;4934458;29;20651;-75
2024/03/15 12:22:49;;;;;;;1.50;0.53;;;22.40;99.90;;;;;;4934308;29;20732;-75
2024/03/15 12:25:14;;;;;;;2.13;0.50;;;22.30;99.90;;;;;;4933821;29;20687;-75
2024/03/15 12:27:41;;;;;;;1.70;0.60;;;22.30;99.90;;;;;;4935083;29;20279;-75
2024/03/15 12:30:10;;;;;;;1.40;0.63;;;22.30;99.90;;;;;;4933973;29;20192;-75
2024/03/15 12:32:36;;;;;;;3.57;0.60;;;22.30;99.90;;;;;;4926621;29;20608;-75
2024/03/15 12:35:05;;;;;;;1.87;0.60;;;22.40;99.90;;;;;;4936683;29;20585;-75
2024/03/15 12:37:31;;;;;;;1.93;0.60;;;22.50;99.90;;;;;;4937915;29;20596;-75
2024/03/15 12:39:58;;;;;;;1.40;0.57;;;22.60;99.90;;;;;;4940996;29;20585;-75
2024/03/15 12:42:24;;;;;;;1.37;0.60;;;22.70;99.90;;;;;;4941433;29;20620;-74
2024/03/15 12:44:50;;;;;;;2.17;0.70;;;22.70;99.90;;;;;;4942087;29;20601;-75
2024/03/15 12:47:16;;;;;;;1.87;0.53;;;22.70;99.90;;;;;;4945401;29;20640;-75
2024/03/15 12:49:41;;;;;;;5.10;1.03;;;22.60;99.90;;;;;;4942249;29;20593;-75
2024/03/15 12:52:16;;;;;;;1.33;0.40;;;22.60;99.90;;;;;;4925373;29;20984;-75
2024/03/15 12:54:43;;;;;;;2.50;0.53;;;22.40;99.90;;;;;;4942337;29;20185;-75
2024/03/15 12:57:10;;;;;;;2.60;0.60;;;22.30;99.90;;;;;;4933511;29;20592;-75